Time;durP1;ratioP1;P1;durP2;ratioP2;P2;SDS_P1;SDS_P2;PMS_P1;PMS_P2;Temp;Humidity;BMP_temperature;BMP_pressure;BME280_temperature;BME280_humidity;BME280_pressure;Samples;Min_cycle;Max_cycle;Signal;HPM_P1;HPM_P2
2023/09/26 00:02:24;;;;;;;33.92;6.35;;;;;;;;;;4930024;29;20429;-75
2023/09/26 00:04:49;;;;;;;10.73;6.07;;;;;;;;;;4928508;29;20024;-76
2023/09/26 00:07:15;;;;;;;8.65;7.40;;;;;;;;;;4925150;29;20064;-75
2023/09/26 00:09:40;;;;;;;8.55;7.15;;;;;;;;;;4926686;29;20393;-75
2023/09/26 00:12:05;;;;;;;9.82;7.53;;;;;;;;;;4929605;29;20026;-75
2023/09/26 00:14:30;;;;;;;10.57;8.02;;;;;;;;;;4931709;29;20075;-75
2023/09/26 00:16:55;;;;;;;7.97;6.45;;;;;;;;;;4932108;29;20031;-75
2023/09/26 00:19:21;;;;;;;8.80;5.87;;;;;;;;;;4927855;29;20023;-75
2023/09/26 00:21:47;;;;;;;7.82;6.43;;;;;;;;;;4930031;29;20803;-75
2023/09/26 00:24:12;;;;;;;8.13;5.75;;;;;;;;;;4928608;29;20082;-75
2023/09/26 00:26:37;;;;;;;6.68;5.78;;;;;;;;;;4930384;29;20039;-75
2023/09/26 00:29:03;;;;;;;6.70;5.33;;;;;;;;;;4931547;29;20024;-75
2023/09/26 00:31:28;;;;;;;8.05;6.28;;;;;;;;;;4931048;29;20295;-75
2023/09/26 00:33:53;;;;;;;11.10;6.40;;;;;;;;;;4929201;29;20023;-76
2023/09/26 00:36:18;;;;;;;6.68;5.53;;;;;;;;;;4925694;29;20327;-75
2023/09/26 00:38:43;;;;;;;5.20;3.63;;;;;;;;;;4924784;29;20622;-75
2023/09/26 00:41:10;;;;;;;8.05;5.15;;;;;;;;;;4932352;29;20042;-75
2023/09/26 00:43:35;;;;;;;7.85;6.25;;;;;;;;;;4925831;29;20448;-75
2023/09/26 00:46:00;;;;;;;16.67;4.97;;;;;;;;;;4931204;29;20036;-75
2023/09/26 00:48:26;;;;;;;10.80;4.78;;;;;;;;;;4926168;29;20028;-75
2023/09/26 00:50:52;;;;;;;5.70;4.10;;;;;;;;;;4928212;29;20118;-75
2023/09/26 00:53:18;;;;;;;12.02;4.55;;;;;;;;;;4924706;29;20063;-75
2023/09/26 00:55:44;;;;;;;5.95;4.65;;;;;;;;;;4931035;29;20516;-75
2023/09/26 00:58:10;;;;;;;8.35;5.05;;;;;;;;;;4930547;29;20063;-75
2023/09/26 01:00:35;;;;;;;6.80;4.53;;;;;;;;;;4929391;29;20039;-76
2023/09/26 01:03:01;;;;;;;9.32;5.13;;;;;;;;;;4927665;29;20401;-75
2023/09/26 01:05:27;;;;;;;11.23;6.20;;;;;;;;;;4926189;29;20536;-75
2023/09/26 01:07:52;;;;;;;5.97;4.30;;;;;;;;;;4931330;29;20110;-75
2023/09/26 01:10:18;;;;;;;5.63;4.13;;;;;;;;;;4930230;29;20019;-75
2023/09/26 01:12:43;;;;;;;6.13;4.38;;;;;;;;;;4925234;29;20509;-75
2023/09/26 01:15:09;;;;;;;9.70;5.68;;;;;;;;;;4926690;29;20111;-75
2023/09/26 01:17:34;;;;;;;13.25;6.90;;;;;;;;;;4915288;29;20064;-75
2023/09/26 01:19:59;;;;;;;17.17;8.93;;;;;;;;;;4922986;29;20031;-75
2023/09/26 01:22:26;;;;;;;25.70;8.30;;;;;;;;;;4923991;29;20079;-75
2023/09/26 01:24:51;;;;;;;58.47;8.60;;;;;;;;;;4922499;29;20041;-75
2023/09/26 01:27:16;;;;;;;42.78;8.75;;;;;;;;;;4916788;29;20111;-75
2023/09/26 01:29:42;;;;;;;37.05;5.75;;;;;;;;;;4923757;29;20036;-75
2023/09/26 01:32:09;;;;;;;24.40;5.55;;;;;;;;;;4925455;29;20060;-76
2023/09/26 01:34:34;;;;;;;12.90;5.50;;;;;;;;;;4921596;29;20137;-75
2023/09/26 01:36:59;;;;;;;20.33;4.97;;;;;;;;;;4926713;29;20028;-75
2023/09/26 01:39:24;;;;;;;27.27;5.97;;;;;;;;;;4922359;29;20043;-75
2023/09/26 01:41:49;;;;;;;24.05;7.28;;;;;;;;;;4922309;29;20028;-75
2023/09/26 01:44:14;;;;;;;7.82;5.63;;;;;;;;;;4921197;29;20088;-75
2023/09/26 01:46:40;;;;;;;8.73;6.38;;;;;;;;;;4927786;29;20507;-75
2023/09/26 01:49:05;;;;;;;7.45;5.47;;;;;;;;;;4923174;29;20066;-75
2023/09/26 01:51:30;;;;;;;8.25;5.13;;;;;;;;;;4921968;29;20036;-76
2023/09/26 01:53:55;;;;;;;7.97;5.00;;;;;;;;;;4926053;29;20020;-76
2023/09/26 01:56:21;;;;;;;10.93;5.97;;;;;;;;;;4920477;29;20637;-75
2023/09/26 01:58:47;;;;;;;11.52;7.30;;;;;;;;;;4926035;29;20036;-75
2023/09/26 02:01:12;;;;;;;11.48;6.75;;;;;;;;;;4927866;29;20463;-75
2023/09/26 02:03:38;;;;;;;11.43;7.00;;;;;;;;;;4926649;29;20036;-75
2023/09/26 02:06:03;;;;;;;33.03;8.53;;;;;;;;;;4925767;29;20061;-75
2023/09/26 02:08:28;;;;;;;9.32;5.65;;;;;;;;;;4927852;29;20287;-75
2023/09/26 02:10:54;;;;;;;28.13;6.60;;;;;;;;;;4919956;29;20032;-75
2023/09/26 02:13:19;;;;;;;22.08;5.25;;;;;;;;;;4917156;29;20397;-76
2023/09/26 02:15:44;;;;;;;22.55;5.95;;;;;;;;;;4925434;29;20028;-75
2023/09/26 02:18:10;;;;;;;13.75;4.50;;;;;;;;;;4928848;29;20436;-75
2023/09/26 02:20:35;;;;;;;11.48;5.63;;;;;;;;;;4921319;29;20032;-76
2023/09/26 02:23:00;;;;;;;12.75;5.20;;;;;;;;;;4922341;29;20036;-75
2023/09/26 02:25:25;;;;;;;15.70;5.07;;;;;;;;;;4929563;29;20024;-75
2023/09/26 02:27:51;;;;;;;15.50;5.10;;;;;;;;;;4923309;29;20764;-75
2023/09/26 02:30:20;;;;;;;26.98;6.18;;;;;;;;;;4925758;29;20527;-75
2023/09/26 02:32:47;;;;;;;21.05;4.72;;;;;;;;;;4924484;29;20048;-75
2023/09/26 02:35:13;;;;;;;23.42;9.38;;;;;;;;;;4927182;29;20075;-75
2023/09/26 02:37:39;;;;;;;8.73;6.85;;;;;;;;;;4919509;29;20039;-75
2023/09/26 02:40:05;;;;;;;10.63;7.95;;;;;;;;;;4922972;29;20032;-75
2023/09/26 02:42:32;;;;;;;8.75;6.70;;;;;;;;;;4918514;29;20060;-75
2023/09/26 02:44:58;;;;;;;13.13;5.18;;;;;;;;;;4926806;29;20098;-75
2023/09/26 02:47:23;;;;;;;13.10;5.95;;;;;;;;;;4920560;29;20584;-75
2023/09/26 02:49:48;;;;;;;7.22;4.78;;;;;;;;;;4925788;29;20028;-75
2023/09/26 02:52:13;;;;;;;5.50;4.10;;;;;;;;;;4922674;29;20028;-75
2023/09/26 02:54:38;;;;;;;9.53;5.37;;;;;;;;;;4918329;29;20108;-75
2023/09/26 02:57:03;;;;;;;15.93;5.45;;;;;;;;;;4928349;29;20271;-75
2023/09/26 02:59:29;;;;;;;16.60;6.75;;;;;;;;;;4940844;23;20505;-85
2023/09/26 03:01:54;;;;;;;6.85;5.15;;;;;;;;;;4927210;29;20036;-85
2023/09/26 03:04:19;;;;;;;5.05;3.85;;;;;;;;;;4931223;29;20028;-85
2023/09/26 03:06:44;;;;;;;5.93;4.45;;;;;;;;;;4929176;29;20048;-86
2023/09/26 03:09:10;;;;;;;8.80;5.03;;;;;;;;;;4925491;29;20036;-86
2023/09/26 03:11:35;;;;;;;5.80;4.75;;;;;;;;;;4920234;29;20055;-87
2023/09/26 03:14:00;;;;;;;4.60;3.38;;;;;;;;;;4928501;29;20115;-85
2023/09/26 03:16:25;;;;;;;7.18;5.05;;;;;;;;;;4909363;29;20038;-86
2023/09/26 03:18:53;;;;;;;9.15;5.63;;;;;;;;;;4927377;29;20028;-86
2023/09/26 03:21:18;;;;;;;5.57;4.20;;;;;;;;;;4923250;29;20032;-87
2023/09/26 03:23:44;;;;;;;5.60;4.60;;;;;;;;;;4927820;29;20046;-86
2023/09/26 03:26:10;;;;;;;6.13;5.50;;;;;;;;;;4927795;29;20035;-86
2023/09/26 03:28:36;;;;;;;6.32;4.80;;;;;;;;;;4923952;29;20824;-86
2023/09/26 03:31:04;;;;;;;4.88;4.07;;;;;;;;;;4926117;29;20062;-86
2023/09/26 03:33:30;;;;;;;4.40;3.33;;;;;;;;;;4929659;29;20035;-86
2023/09/26 03:35:56;;;;;;;4.63;3.60;;;;;;;;;;4922290;29;20032;-87
2023/09/26 03:38:21;;;;;;;5.07;3.88;;;;;;;;;;4919567;29;20060;-85
2023/09/26 03:40:46;;;;;;;5.82;4.50;;;;;;;;;;4928243;29;20031;-85
2023/09/26 03:43:12;;;;;;;5.10;4.30;;;;;;;;;;4928251;29;20144;-86
2023/09/26 03:45:37;;;;;;;6.00;4.25;;;;;;;;;;4927695;29;20366;-85
2023/09/26 03:48:03;;;;;;;7.15;4.97;;;;;;;;;;4931912;29;20115;-85
2023/09/26 03:50:28;;;;;;;7.93;6.38;;;;;;;;;;4934106;29;20115;-85
2023/09/26 03:52:53;;;;;;;25.65;6.78;;;;;;;;;;4925742;29;20039;-85
2023/09/26 03:55:18;;;;;;;17.00;7.45;;;;;;;;;;4935505;29;20047;-87
2023/09/26 03:57:43;;;;;;;11.20;6.23;;;;;;;;;;4933082;29;20036;-88
2023/09/26 04:00:18;;;;;;;12.60;5.97;;;;;;;;;;4925064;29;20363;-88
2023/09/26 04:02:44;;;;;;;16.08;4.88;;;;;;;;;;4920337;29;20308;-87
2023/09/26 04:05:09;;;;;;;6.90;4.55;;;;;;;;;;4926183;29;20051;-88
2023/09/26 04:07:34;;;;;;;15.93;7.07;;;;;;;;;;4931407;29;20042;-89
2023/09/26 04:09:59;;;;;;;8.13;6.05;;;;;;;;;;4929510;29;20278;-87
2023/09/26 04:12:24;;;;;;;7.07;5.68;;;;;;;;;;4923798;29;20480;-86
2023/09/26 04:14:49;;;;;;;8.75;6.93;;;;;;;;;;4928096;29;20083;-87
2023/09/26 04:17:15;;;;;;;8.65;6.68;;;;;;;;;;4928517;29;20031;-85
2023/09/26 04:19:40;;;;;;;6.60;5.40;;;;;;;;;;4926775;29;20496;-87
2023/09/26 04:22:05;;;;;;;9.13;6.88;;;;;;;;;;4917853;29;20296;-87
2023/09/26 04:24:30;;;;;;;7.53;6.15;;;;;;;;;;4931006;29;20480;-87
2023/09/26 04:26:55;;;;;;;10.80;7.57;;;;;;;;;;4935480;29;20054;-87
2023/09/26 04:29:21;;;;;;;7.88;6.80;;;;;;;;;;4935707;29;20283;-87
2023/09/26 04:31:46;;;;;;;10.02;8.20;;;;;;;;;;4932870;29;20031;-86
2023/09/26 04:34:11;;;;;;;8.40;6.88;;;;;;;;;;4929743;29;20047;-87
2023/09/26 04:36:36;;;;;;;13.32;6.20;;;;;;;;;;4930648;29;20404;-87
2023/09/26 04:39:01;;;;;;;15.73;6.07;;;;;;;;;;4934036;29;20119;-88
2023/09/26 04:41:26;;;;;;;10.40;5.70;;;;;;;;;;4927471;29;20027;-87
2023/09/26 04:43:52;;;;;;;12.82;6.32;;;;;;;;;;4928153;29;20039;-88
2023/09/26 04:46:17;;;;;;;11.32;5.60;;;;;;;;;;4928416;29;20051;-85
2023/09/26 04:48:42;;;;;;;12.23;7.20;;;;;;;;;;4926498;29;20071;-86
2023/09/26 04:51:08;;;;;;;6.47;5.00;;;;;;;;;;4934137;29;20280;-84
2023/09/26 04:53:34;;;;;;;6.28;5.13;;;;;;;;;;4922744;29;20031;-88
2023/09/26 04:56:00;;;;;;;14.27;6.80;;;;;;;;;;4928551;28;20143;-87
2023/09/26 04:58:26;;;;;;;5.68;4.45;;;;;;;;;;4924001;29;21689;-89
2023/09/26 05:00:51;;;;;;;12.98;5.78;;;;;;;;;;4928329;29;20038;-88
2023/09/26 05:03:16;;;;;;;16.13;5.90;;;;;;;;;;4928814;29;20028;-89
2023/09/26 05:05:42;;;;;;;24.38;6.13;;;;;;;;;;4931897;29;20485;-87
2023/09/26 05:08:08;;;;;;;10.75;5.78;;;;;;;;;;4933477;29;20119;-88
2023/09/26 05:10:37;;;;;;;10.70;8.10;;;;;;;;;;4922866;29;20139;-88
2023/09/26 05:13:02;;;;;;;9.60;6.78;;;;;;;;;;4929838;29;20091;-87
2023/09/26 05:15:27;;;;;;;22.65;12.10;;;;;;;;;;4920026;29;20040;-88
2023/09/26 05:17:53;;;;;;;9.20;7.35;;;;;;;;;;4928888;29;20382;-89
2023/09/26 05:20:18;;;;;;;20.17;7.28;;;;;;;;;;4924133;29;20024;-88
2023/09/26 05:22:44;;;;;;;8.30;6.28;;;;;;;;;;4924469;29;20034;-88
2023/09/26 05:25:09;;;;;;;7.63;5.85;;;;;;;;;;4921383;29;20502;-87
2023/09/26 05:27:36;;;;;;;7.78;5.53;;;;;;;;;;4920861;29;20043;-89
2023/09/26 05:30:01;;;;;;;10.45;6.47;;;;;;;;;;4927045;29;20480;-88
2023/09/26 05:32:27;;;;;;;6.70;4.60;;;;;;;;;;4923213;29;20112;-90
2023/09/26 05:34:52;;;;;;;7.13;5.00;;;;;;;;;;4925272;29;20032;-88
2023/09/26 05:37:17;;;;;;;6.28;4.95;;;;;;;;;;4926080;29;20036;-88
2023/09/26 05:39:42;;;;;;;6.70;5.50;;;;;;;;;;4924657;29;20477;-88
2023/09/26 05:42:10;;;;;;;7.05;5.63;;;;;;;;;;4926124;29;20043;-88
2023/09/26 05:44:35;;;;;;;7.50;6.10;;;;;;;;;;4923946;29;20055;-89
2023/09/26 05:47:00;;;;;;;5.85;4.97;;;;;;;;;;4926536;29;20031;-88
2023/09/26 05:49:26;;;;;;;7.85;5.93;;;;;;;;;;4926732;29;20071;-88
2023/09/26 05:51:51;;;;;;;7.35;6.03;;;;;;;;;;4929465;29;20063;-88
2023/09/26 05:54:16;;;;;;;6.20;5.22;;;;;;;;;;4919608;29;20028;-88
2023/09/26 05:56:41;;;;;;;6.38;4.72;;;;;;;;;;4924123;29;20040;-89
2023/09/26 05:59:06;;;;;;;5.97;4.57;;;;;;;;;;4928344;29;20032;-88
2023/09/26 06:01:32;;;;;;;9.35;5.45;;;;;;;;;;4924826;29;20083;-88
2023/09/26 06:03:57;;;;;;;8.32;6.07;;;;;;;;;;4929130;29;20023;-90
2023/09/26 06:06:22;;;;;;;7.87;5.07;;;;;;;;;;4932665;29;20033;-88
2023/09/26 06:08:48;;;;;;;8.23;5.47;;;;;;;;;;4926263;29;20705;-88
2023/09/26 06:11:14;;;;;;;6.45;4.43;;;;;;;;;;4925359;29;20099;-89
2023/09/26 06:13:39;;;;;;;6.00;4.22;;;;;;;;;;4932884;29;20419;-89
2023/09/26 06:16:05;;;;;;;6.50;4.95;;;;;;;;;;4926718;29;20036;-88
2023/09/26 06:18:30;;;;;;;5.60;4.25;;;;;;;;;;4926453;29;20031;-88
2023/09/26 06:20:55;;;;;;;6.72;4.00;;;;;;;;;;4917761;29;20027;-88
2023/09/26 06:23:21;;;;;;;5.68;4.45;;;;;;;;;;4927210;29;20620;-89
2023/09/26 06:25:55;;;;;;;7.68;5.15;;;;;;;;;;4929330;29;20059;-89
2023/09/26 06:28:20;;;;;;;6.97;4.30;;;;;;;;;;4931963;29;20051;-88
2023/09/26 06:30:47;;;;;;;6.43;5.60;;;;;;;;;;4922932;29;20501;-89
2023/09/26 06:33:12;;;;;;;8.23;7.07;;;;;;;;;;4925302;29;20736;-89
2023/09/26 06:35:37;;;;;;;8.85;5.75;;;;;;;;;;4920480;29;20160;-89
2023/09/26 06:38:02;;;;;;;8.50;6.38;;;;;;;;;;4917163;29;20031;-88
2023/09/26 06:40:27;;;;;;;8.07;4.50;;;;;;;;;;4924821;29;20489;-88
2023/09/26 06:42:54;;;;;;;9.77;5.28;;;;;;;;;;4925925;29;20119;-88
2023/09/26 06:45:20;;;;;;;10.38;6.07;;;;;;;;;;4922788;29;20059;-87
2023/09/26 06:47:45;;;;;;;8.65;6.03;;;;;;;;;;4921749;29;20036;-88
2023/09/26 06:50:10;;;;;;;9.80;6.55;;;;;;;;;;4930503;29;20032;-89
2023/09/26 06:52:36;;;;;;;12.40;6.68;;;;;;;;;;4920305;29;20062;-88
2023/09/26 06:55:02;;;;;;;12.48;6.13;;;;;;;;;;4928375;29;20039;-88
2023/09/26 06:57:28;;;;;;;11.00;6.72;;;;;;;;;;4932509;29;20066;-88
2023/09/26 06:59:53;;;;;;;11.73;5.63;;;;;;;;;;4926714;29;20519;-88
2023/09/26 07:02:21;;;;;;;9.90;5.43;;;;;;;;;;4930280;29;20028;-89
2023/09/26 07:04:52;;;;;;;8.57;6.65;;;;;;;;;;4923838;29;20036;-88
2023/09/26 07:07:17;;;;;;;8.90;6.00;;;;;;;;;;4917709;29;20111;-87
2023/09/26 07:09:42;;;;;;;10.50;6.72;;;;;;;;;;4926145;29;20222;-88
2023/09/26 07:12:08;;;;;;;9.30;6.78;;;;;;;;;;4930919;29;20031;-88
2023/09/26 07:14:35;;;;;;;13.43;6.68;;;;;;;;;;4922158;29;20029;-88
2023/09/26 07:17:01;;;;;;;8.95;5.95;;;;;;;;;;4923762;29;20036;-89
2023/09/26 07:19:32;;;;;;;10.55;6.57;;;;;;;;;;4926833;29;20075;-87
2023/09/26 07:21:57;;;;;;;7.80;6.22;;;;;;;;;;4922043;29;20058;-88
2023/09/26 07:24:22;;;;;;;11.80;8.23;;;;;;;;;;4922573;29;20056;-89
2023/09/26 07:26:47;;;;;;;8.80;7.47;;;;;;;;;;4925007;29;20036;-87
2023/09/26 07:29:13;;;;;;;13.60;9.07;;;;;;;;;;4922512;29;20294;-89
2023/09/26 07:31:39;;;;;;;12.97;8.47;;;;;;;;;;4917972;29;20039;-91
2023/09/26 07:34:04;;;;;;;11.30;8.43;;;;;;;;;;4917033;29;20276;-88
2023/09/26 07:36:29;;;;;;;10.70;8.32;;;;;;;;;;4925254;29;20099;-88
2023/09/26 07:38:55;;;;;;;8.80;7.07;;;;;;;;;;4922230;29;20035;-88
2023/09/26 07:41:20;;;;;;;13.17;7.00;;;;;;;;;;4926594;29;20123;-88
2023/09/26 07:43:45;;;;;;;9.18;7.00;;;;;;;;;;4925791;29;20287;-88
2023/09/26 07:46:11;;;;;;;11.67;8.43;;;;;;;;;;4928894;29;20050;-88
2023/09/26 07:48:36;;;;;;;10.68;7.85;;;;;;;;;;4925038;29;20693;-87
2023/09/26 07:51:02;;;;;;;12.48;8.57;;;;;;;;;;4926819;29;20504;-88
2023/09/26 07:53:27;;;;;;;15.88;8.25;;;;;;;;;;4932558;29;20070;-88
2023/09/26 07:55:54;;;;;;;15.02;9.70;;;;;;;;;;4929647;29;20087;-88
2023/09/26 07:58:19;;;;;;;12.80;8.20;;;;;;;;;;4928400;29;20027;-88
2023/09/26 08:00:44;;;;;;;13.27;9.15;;;;;;;;;;4917942;29;20503;-88
2023/09/26 08:03:10;;;;;;;13.40;9.00;;;;;;;;;;4926343;29;20456;-85
2023/09/26 08:05:35;;;;;;;15.43;10.38;;;;;;;;;;4929618;29;20110;-85
2023/09/26 08:08:04;;;;;;;12.40;9.57;;;;;;;;;;4921604;29;20056;-85
2023/09/26 08:10:29;;;;;;;13.00;9.23;;;;;;;;;;4922358;29;20044;-87
2023/09/26 08:12:54;;;;;;;11.65;9.85;;;;;;;;;;4923272;29;20036;-85
2023/09/26 08:15:19;;;;;;;13.43;9.70;;;;;;;;;;4916437;29;20036;-85
2023/09/26 08:17:45;;;;;;;9.98;8.65;;;;;;;;;;4922971;29;20032;-85
2023/09/26 08:20:10;;;;;;;10.13;8.23;;;;;;;;;;4923936;29;20055;-85
2023/09/26 08:22:35;;;;;;;13.52;8.88;;;;;;;;;;4921490;29;20339;-87
2023/09/26 08:25:00;;;;;;;13.63;9.40;;;;;;;;;;4923936;29;20056;-85
2023/09/26 08:27:26;;;;;;;11.07;8.87;;;;;;;;;;4925629;29;20035;-85
2023/09/26 08:29:51;;;;;;;15.05;11.35;;;;;;;;;;4922298;29;20286;-85
2023/09/26 08:32:16;;;;;;;14.27;10.45;;;;;;;;;;4917765;29;20044;-85
2023/09/26 08:34:42;;;;;;;15.67;9.40;;;;;;;;;;4926074;29;20083;-87
2023/09/26 08:37:07;;;;;;;12.82;10.77;;;;;;;;;;4923689;29;20809;-85
2023/09/26 08:39:32;;;;;;;13.20;9.80;;;;;;;;;;4928858;29;20564;-85
2023/09/26 08:41:58;;;;;;;15.60;10.70;;;;;;;;;;4932136;29;20664;-85
2023/09/26 08:44:24;;;;;;;17.08;10.50;;;;;;;;;;4919508;29;20280;-86
2023/09/26 08:46:50;;;;;;;15.95;13.55;;;;;;;;;;4933670;29;20068;-85
2023/09/26 08:49:15;;;;;;;14.80;12.73;;;;;;;;;;4926999;29;20122;-85
2023/09/26 08:51:40;;;;;;;14.80;9.30;;;;;;;;;;4927366;29;20545;-85
2023/09/26 08:54:05;;;;;;;16.08;11.75;;;;;;;;;;4927669;29;20092;-85
2023/09/26 08:56:32;;;;;;;13.05;10.20;;;;;;;;;;4919554;29;20044;-85
2023/09/26 08:58:58;;;;;;;14.85;11.95;;;;;;;;;;4924792;29;20032;-85
2023/09/26 09:01:23;;;;;;;13.85;10.10;;;;;;;;;;4926953;29;20031;-85
2023/09/26 09:03:48;;;;;;;13.80;11.10;;;;;;;;;;4925149;29;20063;-85
2023/09/26 09:06:14;;;;;;;13.50;10.50;;;;;;;;;;4926773;29;20063;-85
2023/09/26 09:08:39;;;;;;;17.15;10.27;;;;;;;;;;4922409;29;20312;-85
2023/09/26 09:11:04;;;;;;;15.32;12.50;;;;;;;;;;4929239;29;20036;-85
2023/09/26 09:13:31;;;;;;;12.40;9.30;;;;;;;;;;4927942;29;20051;-85
2023/09/26 09:16:05;;;;;;;12.50;9.40;;;;;;;;;;4928183;29;20055;-85
2023/09/26 09:18:31;;;;;;;15.88;8.45;;;;;;;;;;4928472;29;20111;-85
2023/09/26 09:20:56;;;;;;;10.48;7.53;;;;;;;;;;4932084;29;20058;-85
2023/09/26 09:23:21;;;;;;;12.57;9.38;;;;;;;;;;4923874;29;20063;-84
2023/09/26 09:25:50;;;;;;;14.03;9.47;;;;;;;;;;4928966;29;20456;-85
2023/09/26 09:28:18;;;;;;;11.95;8.20;;;;;;;;;;4928717;29;20287;-85
2023/09/26 09:30:44;;;;;;;14.75;8.43;;;;;;;;;;4930808;29;20050;-84
2023/09/26 09:33:12;;;;;;;11.27;7.78;;;;;;;;;;4930003;29;20036;-85
2023/09/26 09:35:37;;;;;;;14.80;9.00;;;;;;;;;;4923189;29;20127;-84
2023/09/26 09:38:04;;;;;;;16.65;10.23;;;;;;;;;;4923623;29;20055;-86
2023/09/26 09:40:30;;;;;;;11.95;9.27;;;;;;;;;;4930281;29;20559;-85
2023/09/26 09:42:55;;;;;;;12.80;7.30;;;;;;;;;;4936863;29;20060;-85
2023/09/26 09:45:21;;;;;;;8.77;6.50;;;;;;;;;;4926159;29;20040;-85
2023/09/26 09:47:47;;;;;;;9.02;7.13;;;;;;;;;;4931902;29;20306;-85
2023/09/26 09:50:13;;;;;;;9.13;6.40;;;;;;;;;;4924787;29;20040;-85
2023/09/26 09:52:40;;;;;;;10.05;6.40;;;;;;;;;;4928872;29;20131;-85
2023/09/26 09:55:08;;;;;;;14.32;9.43;;;;;;;;;;4932908;29;20601;-85
2023/09/26 09:57:37;;;;;;;12.23;7.30;;;;;;;;;;4926949;29;20028;-83
2023/09/26 10:00:05;;;;;;;15.05;9.70;;;;;;;;;;4931483;29;20473;-83
2023/09/26 10:02:30;;;;;;;13.25;9.70;;;;;;;;;;4930071;29;20489;-85
2023/09/26 10:04:56;;;;;;;9.57;7.18;;;;;;;;;;4928970;29;20028;-84
2023/09/26 10:07:23;;;;;;;10.60;7.00;;;;;;;;;;4922867;29;20086;-84
2023/09/26 10:09:49;;;;;;;14.07;11.23;;;;;;;;;;4923967;29;20307;-83
2023/09/26 10:12:15;;;;;;;13.27;8.75;;;;;;;;;;4929612;29;20040;-84
2023/09/26 10:14:40;;;;;;;13.85;8.82;;;;;;;;;;4927874;29;20406;-83
2023/09/26 10:17:06;;;;;;;8.98;6.97;;;;;;;;;;4924763;29;20032;-84
2023/09/26 10:19:32;;;;;;;12.20;6.35;;;;;;;;;;4920542;29;20036;-84
2023/09/26 10:22:12;;;;;;;13.15;8.95;;;;;;;;;;4922911;29;20167;-85
2023/09/26 10:24:44;;;;;;;12.88;9.55;;;;;;;;;;4931792;29;20039;-84
2023/09/26 10:27:10;;;;;;;11.63;7.00;;;;;;;;;;4929695;29;20477;-83
2023/09/26 10:29:36;;;;;;;11.10;7.37;;;;;;;;;;4922185;29;20043;-82
2023/09/26 10:32:06;;;;;;;15.88;10.73;;;;;;;;;;4931827;29;20047;-85
2023/09/26 10:34:35;;;;;;;10.73;7.80;;;;;;;;;;4934302;29;20104;-85
2023/09/26 10:37:02;;;;;;;9.63;6.25;;;;;;;;;;4933359;29;20492;-85
2023/09/26 10:39:40;;;;;;;12.55;9.55;;;;;;;;;;4936016;29;20036;-85
2023/09/26 10:42:09;;;;;;;8.38;6.93;;;;;;;;;;4926424;29;20039;-83
2023/09/26 10:44:35;;;;;;;10.30;7.45;;;;;;;;;;4931646;29;20118;-84
2023/09/26 10:47:00;;;;;;;10.23;5.28;;;;;;;;;;4922352;29;20551;-85
2023/09/26 10:49:26;;;;;;;10.68;7.50;;;;;;;;;;4933846;29;20046;-84
2023/09/26 10:51:51;;;;;;;9.75;7.35;;;;;;;;;;4930726;29;20047;-84
2023/09/26 10:54:16;;;;;;;11.00;7.60;;;;;;;;;;4931102;29;20114;-83
2023/09/26 10:56:47;;;;;;;8.88;6.32;;;;;;;;;;4923211;29;20386;-83
2023/09/26 10:59:15;;;;;;;11.43;6.70;;;;;;;;;;4930161;29;20519;-81
2023/09/26 11:01:41;;;;;;;9.73;4.45;;;;;;;;;;4917677;29;20043;-85
2023/09/26 11:04:06;;;;;;;8.25;4.55;;;;;;;;;;4924577;29;20031;-85
2023/09/26 11:06:32;;;;;;;7.22;4.15;;;;;;;;;;4927734;29;20035;-86
2023/09/26 11:08:57;;;;;;;6.78;4.03;;;;;;;;;;4924236;29;20527;-85
2023/09/26 11:11:22;;;;;;;7.20;4.80;;;;;;;;;;4920722;29;20032;-85
2023/09/26 11:13:47;;;;;;;8.38;5.00;;;;;;;;;;4920315;29;20515;-84
2023/09/26 11:16:13;;;;;;;7.07;5.03;;;;;;;;;;4920444;29;20404;-84
2023/09/26 11:18:38;;;;;;;7.17;4.33;;;;;;;;;;4921146;29;20115;-85
2023/09/26 11:21:03;;;;;;;10.50;7.25;;;;;;;;;;4926554;29;20659;-85
2023/09/26 11:23:35;;;;;;;13.82;7.13;;;;;;;;;;5104662;27;20447;-83
2023/09/26 11:26:03;;;;;;;7.88;6.03;;;;;;;;;;5096225;28;20059;-83
2023/09/26 11:28:29;;;;;;;11.25;8.55;;;;;;;;;;5097146;28;20028;-83
2023/09/26 11:30:55;;;;;;;9.50;6.00;;;;;;;;;;5098176;28;20039;-84
2023/09/26 11:33:20;;;;;;;6.97;4.57;;;;;;;;;;5092395;28;20031;-84
2023/09/26 11:35:46;;;;;;;12.30;6.80;;;;;;;;;;5095726;28;20262;-83
2023/09/26 11:38:11;;;;;;;10.20;6.30;;;;;;;;;;5086787;28;20048;-84
2023/09/26 11:40:36;;;;;;;11.40;6.45;;;;;;;;;;5094115;28;20028;-87
2023/09/26 11:43:03;;;;;;;8.35;5.30;;;;;;;;;;5087315;28;20040;-85
2023/09/26 11:45:28;;;;;;;9.90;5.60;;;;;;;;;;5099458;28;20648;-85
2023/09/26 11:47:54;;;;;;;6.45;4.70;;;;;;;;;;5084988;28;20123;-85
2023/09/26 11:50:20;;;;;;;10.38;5.40;;;;;;;;;;5085547;28;20017;-85
2023/09/26 11:52:47;;;;;;;8.65;4.85;;;;;;;;;;5090347;28;20519;-86
2023/09/26 11:55:18;;;;;;;9.80;5.47;;;;;;;;;;5093925;28;20032;-85
2023/09/26 11:57:44;;;;;;;8.95;6.10;;;;;;;;;;5096039;28;20035;-86
2023/09/26 12:00:11;;;;;;;8.75;3.95;;;;;;;;;;5092323;28;20021;-86
2023/09/26 12:02:38;;;;;;;7.97;4.72;;;;;;;;;;5087374;28;20088;-85
2023/09/26 12:05:06;;;;;;;6.88;4.32;;;;;;;;;;5083512;28;20397;-85
2023/09/26 12:07:31;;;;;;;9.30;5.05;;;;;;;;;;5092626;28;20108;-85
2023/09/26 12:09:56;;;;;;;7.90;4.20;;;;;;;;;;5087506;28;20484;-85
2023/09/26 12:12:22;;;;;;;7.93;5.47;;;;;;;;;;5091248;28;20962;-85
2023/09/26 12:14:48;;;;;;;11.40;6.90;;;;;;;;;;5096714;28;20391;-85
2023/09/26 12:17:13;;;;;;;9.93;5.57;;;;;;;;;;5086680;28;20029;-85
2023/09/26 12:19:38;;;;;;;11.40;4.73;;;;;;;;;;5084822;28;20107;-86
2023/09/26 12:22:04;;;;;;;9.93;4.70;;;;;;;;;;5086768;28;20032;-85
2023/09/26 12:24:29;;;;;;;8.80;5.23;;;;;;;;;;5094376;28;20035;-85
2023/09/26 12:26:55;;;;;;;8.18;4.95;;;;;;;;;;5099519;28;20538;-84
2023/09/26 12:29:20;;;;;;;8.35;4.57;;;;;;;;;;5080614;28;20117;-85
2023/09/26 12:31:45;;;;;;;8.40;6.33;;;;;;;;;;5085531;28;20035;-85
2023/09/26 12:34:11;;;;;;;8.07;5.53;;;;;;;;;;5076119;28;20271;-85
2023/09/26 12:36:36;;;;;;;10.82;5.63;;;;;;;;;;5078366;28;20098;-85
2023/09/26 12:39:02;;;;;;;10.07;7.03;;;;;;;;;;5082662;28;20070;-85
2023/09/26 12:41:28;;;;;;;9.00;5.75;;;;;;;;;;5077560;28;20040;-85
2023/09/26 12:43:53;;;;;;;8.07;4.00;;;;;;;;;;5067684;28;20489;-85
2023/09/26 12:46:19;;;;;;;9.73;6.05;;;;;;;;;;5069068;28;20028;-85
2023/09/26 12:48:44;;;;;;;8.20;5.32;;;;;;;;;;5072842;28;20028;-84
2023/09/26 12:51:09;;;;;;;9.77;6.77;;;;;;;;;;5079179;28;20467;-85
2023/09/26 12:53:35;;;;;;;9.98;6.30;;;;;;;;;;5077874;28;20032;-85
2023/09/26 12:56:00;;;;;;;7.07;4.57;;;;;;;;;;5068776;28;20407;-85
2023/09/26 12:58:25;;;;;;;4.47;3.37;;;;;;;;;;5070850;28;20298;-86
2023/09/26 13:00:50;;;;;;;7.13;4.33;;;;;;;;;;5078442;28;20675;-85
2023/09/26 13:03:15;;;;;;;8.63;6.80;;;;;;;;;;5074289;28;20067;-85
2023/09/26 13:05:41;;;;;;;10.17;6.17;;;;;;;;;;5079485;28;20032;-84
2023/09/26 13:08:06;;;;;;;7.05;3.75;;;;;;;;;;5079626;28;20040;-84
2023/09/26 13:10:31;;;;;;;9.23;4.80;;;;;;;;;;5067981;28;20547;-81
2023/09/26 13:12:57;;;;;;;7.73;4.37;;;;;;;;;;5070009;28;20039;-82
2023/09/26 13:15:22;;;;;;;9.25;6.68;;;;;;;;;;5074659;28;20054;-82
2023/09/26 13:17:47;;;;;;;8.47;5.53;;;;;;;;;;5077068;28;20047;-82
2023/09/26 13:20:14;;;;;;;9.20;6.18;;;;;;;;;;5077236;28;20275;-81
2023/09/26 13:22:39;;;;;;;10.90;5.20;;;;;;;;;;5083446;28;20038;-82
2023/09/26 13:25:05;;;;;;;9.63;7.03;;;;;;;;;;5064656;28;20443;-81
2023/09/26 13:27:30;;;;;;;10.82;6.60;;;;;;;;;;5067966;28;20032;-82
2023/09/26 13:29:55;;;;;;;7.00;5.13;;;;;;;;;;5072770;28;20392;-83
2023/09/26 13:32:21;;;;;;;7.07;4.10;;;;;;;;;;5076812;28;20274;-82
2023/09/26 13:34:47;;;;;;;7.25;4.55;;;;;;;;;;5073528;28;20039;-82
2023/09/26 13:37:12;;;;;;;7.55;5.55;;;;;;;;;;5077718;28;20028;-82
2023/09/26 13:39:37;;;;;;;9.93;5.73;;;;;;;;;;5066758;28;20044;-81
2023/09/26 13:42:02;;;;;;;10.37;5.53;;;;;;;;;;5072641;28;20024;-82
2023/09/26 13:44:27;;;;;;;9.50;7.20;;;;;;;;;;5072018;28;20507;-81
2023/09/26 13:46:53;;;;;;;9.77;4.77;;;;;;;;;;5067484;28;20025;-81
2023/09/26 13:49:18;;;;;;;9.80;6.07;;;;;;;;;;5073708;28;20793;-81
2023/09/26 13:51:43;;;;;;;13.73;8.32;;;;;;;;;;5082965;28;20059;-82
2023/09/26 13:54:09;;;;;;;10.70;6.20;;;;;;;;;;5066925;28;20033;-81
2023/09/26 13:56:34;;;;;;;8.25;6.22;;;;;;;;;;5076431;28;20119;-81
2023/09/26 13:58:59;;;;;;;10.27;8.17;;;;;;;;;;5075572;28;20036;-81
2023/09/26 14:01:25;;;;;;;10.03;5.87;;;;;;;;;;5077077;28;20032;-81
2023/09/26 14:03:50;;;;;;;6.28;3.85;;;;;;;;;;5076667;28;20535;-82
2023/09/26 14:06:15;;;;;;;8.27;5.63;;;;;;;;;;5067722;28;20021;-81
2023/09/26 14:08:40;;;;;;;9.40;7.17;;;;;;;;;;5066834;28;20025;-81
2023/09/26 14:11:06;;;;;;;9.57;7.13;;;;;;;;;;5070399;28;20104;-81
2023/09/26 14:13:32;;;;;;;9.05;6.50;;;;;;;;;;5075383;28;20060;-81
2023/09/26 14:15:57;;;;;;;11.02;7.75;;;;;;;;;;5077202;28;20032;-81
2023/09/26 14:18:22;;;;;;;7.67;5.27;;;;;;;;;;5080423;28;20381;-82
2023/09/26 14:20:51;;;;;;;10.87;5.87;;;;;;;;;;5072205;28;20052;-81
2023/09/26 14:23:22;;;;;;;8.27;5.55;;;;;;;;;;5070650;28;20051;-78
2023/09/26 14:25:51;;;;;;;9.02;5.18;;;;;;;;;;5076880;28;20488;-81
2023/09/26 14:28:16;;;;;;;8.02;4.18;;;;;;;;;;5073598;28;20406;-79